Time,TemperatureF,DewpointF,PressureIn,WindDirection,WindDirectionDegrees,WindSpeedMPH,WindSpeedGustMPH,Humidity,HourlyPrecipIn,Conditions,Clouds,dailyrainin,SolarRadiationWatts/m^2,SoftwareType,DateUTC
2013-07-04 00:01:00,52.0,39.0,-100.00,NNW,348,8.0,17.0,62,0.00,,,-99.99,0.000000,,2013-07-04 06:01:00,
2013-07-04 00:11:00,52.0,39.0,-100.00,NNW,348,8.0,17.0,62,0.00,,,-99.99,0.000000,,2013-07-04 06:11:00,
2013-07-04 00:22:00,52.0,39.0,-100.00,NNW,348,8.0,17.0,62,0.00,,,-99.99,0.000000,,2013-07-04 06:22:00,
2013-07-04 00:34:00,52.0,39.0,-100.00,NNW,348,8.0,17.0,62,0.00,,,-99.99,0.000000,,2013-07-04 06:34:00,
2013-07-04 01:02:00,52.0,38.0,-100.00,NNW,346,7.0,12.0,59,0.00,,,0.00,0.000000,,2013-07-04 07:02:00,
2013-07-04 01:12:00,52.0,38.0,-100.00,NNW,346,7.0,12.0,59,0.00,,,0.00,0.000000,,2013-07-04 07:12:00,
2013-07-04 01:22:00,52.0,38.0,-100.00,NNW,346,7.0,12.0,59,0.00,,,0.00,0.000000,,2013-07-04 07:22:00,
2013-07-04 01:34:00,52.0,38.0,-100.00,NNW,346,7.0,12.0,59,0.00,,,0.00,0.000000,,2013-07-04 07:34:00,
2013-07-04 02:02:00,50.0,39.0,-100.00,NNW,339,9.0,12.0,65,0.00,,,0.00,0.000000,,2013-07-04 08:02:00,
2013-07-04 02:11:00,50.0,39.0,-100.00,NNW,339,9.0,12.0,65,0.00,,,0.00,0.000000,,2013-07-04 08:11:00,
2013-07-04 02:22:00,50.0,39.0,-100.00,NNW,339,9.0,12.0,65,0.00,,,0.00,0.000000,,2013-07-04 08:22:00,
2013-07-04 02:33:00,50.0,39.0,-100.00,NNW,339,9.0,12.0,65,0.00,,,0.00,0.000000,,2013-07-04 08:33:00,
2013-07-04 03:02:00,49.0,38.0,-100.00,North,2,8.0,13.0,66,0.00,,,0.00,0.000000,,2013-07-04 09:02:00,
2013-07-04 03:11:00,49.0,38.0,-100.00,North,2,8.0,13.0,66,0.00,,,0.00,0.000000,,2013-07-04 09:11:00,
2013-07-04 03:22:00,49.0,38.0,-100.00,North,2,8.0,13.0,66,0.00,,,0.00,0.000000,,2013-07-04 09:22:00,
2013-07-04 03:32:00,49.0,38.0,-100.00,North,2,8.0,13.0,66,0.00,,,0.00,0.000000,,2013-07-04 09:32:00,
2013-07-04 04:01:00,51.0,38.0,-100.00,North,353,10.0,14.0,62,0.00,,,0.00,0.000000,,2013-07-04 10:01:00,
2013-07-04 04:11:00,51.0,38.0,-100.00,North,353,10.0,14.0,62,0.00,,,0.00,0.000000,,2013-07-04 10:11:00,
2013-07-04 04:22:00,51.0,38.0,-100.00,North,353,10.0,14.0,62,0.00,,,0.00,0.000000,,2013-07-04 10:22:00,
2013-07-04 04:33:00,51.0,38.0,-100.00,North,353,10.0,14.0,62,0.00,,,0.00,0.000000,,2013-07-04 10:33:00,
2013-07-04 05:02:00,51.0,38.0,-100.00,North,358,9.0,13.0,62,0.00,,,0.00,0.000000,,2013-07-04 11:02:00,
2013-07-04 05:11:00,51.0,38.0,-100.00,North,358,9.0,13.0,62,0.00,,,0.00,0.000000,,2013-07-04 11:11:00,
2013-07-04 05:22:00,51.0,38.0,-100.00,North,358,9.0,13.0,62,0.00,,,0.00,0.000000,,2013-07-04 11:22:00,
2013-07-04 05:33:00,51.0,38.0,-100.00,North,358,9.0,13.0,62,0.00,,,0.00,0.000000,,2013-07-04 11:33:00,
2013-07-04 06:02:00,54.0,37.0,-100.00,North,11,9.0,14.0,53,0.00,,,0.00,0.000000,,2013-07-04 12:02:00,
2013-07-04 06:11:00,54.0,37.0,-100.00,North,11,9.0,14.0,53,0.00,,,0.00,0.000000,,2013-07-04 12:11:00,
2013-07-04 06:22:00,54.0,37.0,-100.00,North,11,9.0,14.0,53,0.00,,,0.00,0.000000,,2013-07-04 12:22:00,
2013-07-04 06:33:00,54.0,37.0,-100.00,North,11,9.0,14.0,53,0.00,,,0.00,0.000000,,2013-07-04 12:33:00,
2013-07-04 07:02:00,54.0,37.0,-100.00,North,9,8.0,13.0,53,0.00,,,0.00,32.000000,,2013-07-04 13:02:00,
2013-07-04 07:12:00,54.0,37.0,-100.00,North,9,8.0,13.0,53,0.00,,,0.00,32.000000,,2013-07-04 13:12:00,
2013-07-04 07:23:00,54.0,37.0,-100.00,North,9,8.0,13.0,53,0.00,,,0.00,32.000000,,2013-07-04 13:23:00,
2013-07-04 07:33:00,54.0,37.0,-100.00,North,9,8.0,13.0,53,0.00,,,0.00,32.000000,,2013-07-04 13:33:00,
2013-07-04 08:33:00,64.0,39.0,-100.00,NW,317,12.0,20.0,39,0.00,,,0.00,181.000000,,2013-07-04 14:33:00,
2013-07-04 10:02:00,70.0,40.0,-100.00,SSE,163,7.0,12.0,34,-99.99,,,0.00,526.000000,,2013-07-04 16:02:00,
2013-07-04 10:11:00,70.0,40.0,-100.00,SSE,163,7.0,12.0,34,-99.99,,,0.00,526.000000,,2013-07-04 16:11:00,
2013-07-04 10:22:00,70.0,40.0,-100.00,SSE,163,7.0,12.0,34,-99.99,,,0.00,526.000000,,2013-07-04 16:22:00,
2013-07-04 10:33:00,70.0,40.0,-100.00,SSE,163,7.0,12.0,34,-99.99,,,0.00,526.000000,,2013-07-04 16:33:00,
2013-07-04 11:01:00,75.0,34.0,-100.00,NNE,22,10.0,23.0,22,0.00,,,0.00,701.000000,,2013-07-04 17:01:00,
2013-07-04 11:12:00,75.0,34.0,-100.00,NNE,22,10.0,23.0,22,0.00,,,0.00,701.000000,,2013-07-04 17:12:00,
2013-07-04 11:22:00,75.0,34.0,-100.00,NNE,22,10.0,23.0,22,0.00,,,0.00,701.000000,,2013-07-04 17:22:00,
2013-07-04 11:33:00,75.0,34.0,-100.00,NNE,22,10.0,23.0,22,0.00,,,0.00,701.000000,,2013-07-04 17:33:00,
2013-07-04 12:01:00,76.0,32.0,-100.00,NNE,15,9.0,18.0,20,0.00,,,0.00,836.000000,,2013-07-04 18:01:00,
2013-07-04 12:11:00,76.0,32.0,-100.00,NNE,15,9.0,18.0,20,0.00,,,0.00,836.000000,,2013-07-04 18:11:00,
2013-07-04 12:22:00,76.0,32.0,-100.00,NNE,15,9.0,18.0,20,0.00,,,0.00,836.000000,,2013-07-04 18:22:00,
2013-07-04 12:33:00,76.0,32.0,-100.00,NNE,15,9.0,18.0,20,0.00,,,0.00,836.000000,,2013-07-04 18:33:00,
2013-07-04 13:01:00,79.0,32.0,-100.00,NNE,17,5.0,17.0,18,0.00,,,0.00,955.000000,,2013-07-04 19:01:00,
2013-07-04 13:12:00,79.0,32.0,-100.00,NNE,17,5.0,17.0,18,0.00,,,0.00,955.000000,,2013-07-04 19:12:00,
2013-07-04 13:22:00,79.0,32.0,-100.00,NNE,17,5.0,17.0,18,0.00,,,0.00,955.000000,,2013-07-04 19:22:00,
2013-07-04 13:33:00,79.0,32.0,-100.00,NNE,17,5.0,17.0,18,0.00,,,0.00,955.000000,,2013-07-04 19:33:00,
2013-07-04 14:01:00,80.0,33.0,-100.00,ESE,107,6.0,15.0,18,0.00,,,0.00,915.000000,,2013-07-04 20:01:00,
2013-07-04 14:11:00,80.0,33.0,-100.00,ESE,107,6.0,15.0,18,0.00,,,0.00,915.000000,,2013-07-04 20:11:00,
2013-07-04 14:22:00,80.0,33.0,-100.00,ESE,107,6.0,15.0,18,0.00,,,0.00,915.000000,,2013-07-04 20:22:00,
2013-07-04 14:33:00,80.0,33.0,-100.00,ESE,107,6.0,15.0,18,0.00,,,0.00,915.000000,,2013-07-04 20:33:00,
2013-07-04 15:01:00,79.0,30.0,-100.00,SSE,159,6.0,18.0,17,0.00,,,-99.99,813.000000,,2013-07-04 21:01:00,
2013-07-04 15:11:00,79.0,30.0,-100.00,SSE,159,6.0,18.0,17,0.00,,,-99.99,813.000000,,2013-07-04 21:11:00,
2013-07-04 15:22:00,79.0,30.0,-100.00,SSE,159,6.0,18.0,17,0.00,,,-99.99,813.000000,,2013-07-04 21:22:00,
2013-07-04 15:32:00,79.0,30.0,-100.00,SSE,159,6.0,18.0,17,0.00,,,-99.99,813.000000,,2013-07-04 21:32:00,
2013-07-04 16:02:00,81.0,31.0,-100.00,SSE,161,4.0,15.0,16,0.00,,,0.00,603.000000,,2013-07-04 22:02:00,
2013-07-04 16:12:00,81.0,31.0,-100.00,SSE,161,4.0,15.0,16,0.00,,,0.00,603.000000,,2013-07-04 22:12:00,
2013-07-04 16:22:00,81.0,31.0,-100.00,SSE,161,4.0,15.0,16,0.00,,,0.00,603.000000,,2013-07-04 22:22:00,
2013-07-04 16:33:00,81.0,31.0,-100.00,SSE,161,4.0,15.0,16,0.00,,,0.00,603.000000,,2013-07-04 22:33:00,
2013-07-04 17:01:00,76.0,33.0,-100.00,SSW,208,7.0,15.0,21,0.00,,,0.00,187.000000,,2013-07-04 23:01:00,
2013-07-04 17:12:00,76.0,33.0,-100.00,SSW,208,7.0,15.0,21,0.00,,,0.00,187.000000,,2013-07-04 23:12:00,
2013-07-04 17:23:00,76.0,33.0,-100.00,SSW,208,7.0,15.0,21,0.00,,,0.00,187.000000,,2013-07-04 23:23:00,
2013-07-04 17:33:00,76.0,33.0,-100.00,SSW,208,7.0,15.0,21,0.00,,,0.00,187.000000,,2013-07-04 23:33:00,
2013-07-04 18:32:00,69.0,46.0,-100.00,WNW,301,5.0,32.0,44,0.00,,,-99.99,144.000000,,2013-07-05 00:32:00,
2013-07-04 19:01:00,67.0,42.0,-100.00,ENE,69,8.0,30.0,40,0.00,,,0.00,76.000000,,2013-07-05 01:01:00,
2013-07-04 19:11:00,67.0,42.0,-100.00,ENE,69,8.0,30.0,40,0.00,,,0.00,76.000000,,2013-07-05 01:11:00,
2013-07-04 19:22:00,67.0,42.0,-100.00,ENE,69,8.0,30.0,40,0.00,,,0.00,76.000000,,2013-07-05 01:22:00,
2013-07-04 19:32:00,67.0,42.0,-100.00,ENE,69,8.0,30.0,40,0.00,,,0.00,76.000000,,2013-07-05 01:32:00,
2013-07-04 20:02:00,65.0,43.0,-100.00,SE,133,3.0,23.0,45,0.00,,,0.00,51.000000,,2013-07-05 02:02:00,
2013-07-04 20:11:00,65.0,43.0,-100.00,SE,133,3.0,23.0,45,0.00,,,0.00,51.000000,,2013-07-05 02:11:00,
2013-07-04 20:21:00,65.0,43.0,-100.00,SE,133,3.0,23.0,45,0.00,,,0.00,51.000000,,2013-07-05 02:21:00,
2013-07-04 20:32:00,65.0,43.0,-100.00,SE,133,3.0,23.0,45,0.00,,,0.00,51.000000,,2013-07-05 02:32:00,
2013-07-04 21:02:00,62.0,45.0,-100.00,NW,319,7.0,13.0,53,0.00,,,-99.99,9.000000,,2013-07-05 03:02:00,
2013-07-04 21:11:00,62.0,45.0,-100.00,NW,319,7.0,13.0,53,0.00,,,-99.99,9.000000,,2013-07-05 03:11:00,
2013-07-04 21:22:00,62.0,45.0,-100.00,NW,319,7.0,13.0,53,0.00,,,-99.99,9.000000,,2013-07-05 03:22:00,
2013-07-04 21:32:00,62.0,45.0,-100.00,NW,319,7.0,13.0,53,0.00,,,-99.99,9.000000,,2013-07-05 03:32:00,
2013-07-04 22:01:00,58.0,43.0,-100.00,NNW,346,4.0,6.0,57,0.00,,,0.00,0.000000,,2013-07-05 04:01:00,
2013-07-04 22:11:00,58.0,43.0,-100.00,NNW,346,4.0,6.0,57,0.00,,,0.00,0.000000,,2013-07-05 04:11:00,
2013-07-04 22:22:00,58.0,43.0,-100.00,NNW,346,4.0,6.0,57,0.00,,,0.00,0.000000,,2013-07-05 04:22:00,
2013-07-04 22:33:00,58.0,43.0,-100.00,NNW,346,4.0,6.0,57,0.00,,,0.00,0.000000,,2013-07-05 04:33:00,